Impacts TAF Board
For situational awareness. Not to be used for flight planning purposes.
IDs:

KMIA - Miami Intl, FL, US

Issued at 0253 UTC 03 Jul 2022
Updated at 0446 UTC 03 Jul 2022
Potential Impact None Slight Moderate High
Time0353Z 03/05Z 03/06Z 03/07Z 03/08Z 03/09Z 03/10Z 03/11Z 03/12Z 03/13Z 03/14Z 03/15Z 03/16Z 03/17Z>>
Type OBS PRVL PRVL PRVL PRVL PRVL PRVL PRVL PRVL PRVL PRVL PRVL PRVL PRVL
VIS 10 >6 >6 >6 >6 >6 >6 >6 >6 >6 >6 >6 >6 >6
CIG -- -- -- -- -- -- -- -- -- -- -- -- -- --
Cover FEW SCT SCT SCT SCT SCT SCT SCT SCT SCT SCT SCT SCT SCT
FltCat VFR VFR VFR VFR VFR VFR VFR VFR VFR VFR VFR VFR VFR VFR
WX -- -- -- -- -- -- -- -- -- -- -- VCSH VCSH VCSH
WDir 110 110 110 110 110 110 110 110 110 110 110 110 110 110
WSpd 8 8 8 8 8 8 8 8 8 8 8 10 10 10
WGst -- -- -- -- -- -- -- -- -- -- -- -- -- --
WSHgt -- -- -- -- -- -- -- -- -- -- -- -- -- --
WSDir -- -- -- -- -- -- -- -- -- -- -- -- -- --
WSSpd -- -- -- -- -- -- -- -- -- -- -- -- -- --
Raw TAF
KMIA 030253Z 0303/0406 11008KT P6SM FEW025 SCT050
  FM031500 11010KT P6SM VCSH SCT030 SCT050
  FM040200 11007KT P6SM SCT025 SCT050


Raw METAR
KMIA 030353Z 11008KT 10SM FEW025 28/24 A3008 RMK AO2 SLP186 T02830239 $
KMIA 030253Z 11010KT 10SM FEW025 29/23 A3008 RMK AO2 SLP185 T02890233 53013 $
KMIA 030153Z 10010KT 10SM SCT025 SCT250 29/24 A3006 RMK AO2 SLP180 T02890239 $

METAR Board
Radar Display
Forecast Discussion
For situational awareness. Not to be used for flight planning purposes.